Main page
METAR-TAF:

METAR-TAF

Airports :

Ushuaia, Argentina

Ushuaia – Malvinas Argentinas International Airport

latitude: 54-48S, longitude: 068-19W, elevation: 16 m

Current weather observation

The report was made 1 hour and 15 minutes ago, at 05:00 UTC
Wind 2 kt from the North
Temperature 8°C
Humidity 71%
Pressure 997 hPa
Visibility 10 km or more
Broken clouds at a height of 3800 ft
Broken clouds at a height of 9000 ft

METAR: SAWH 010500Z 36002KT 9999 BKN038 BKN090 08/03 Q0997

Time: 03:15 (06:15 UTC)

Forecast

The report was made 1 hour and 15 minutes ago, at 05:00 UTC
Forecast valid from 01 at 06 UTC to 02 at 06 UTC
Wind 15 kt from the Northeast
Visibility 10 km or more
Scattered clouds at a height of 2500 ft
Broken clouds at a height of 5000 ft
Probability 40% :
Temporary
from 01 at 08 UTC to 01 at 12 UTC
Visibility: 5000 m
drizzle

TAF: SAWH 010500Z 0106/0206 05015KT 9999 SCT025 BKN050 TX10/0119Z TN04/0112Z PROB40 TEMPO 0108/0112 5000 DZ

Weather observations and forecasts of more than 4000 airports (METAR and TAF reports).

The available stations are represented by yellow and red dots on the map.

Hover mouse over dot to see the name of the station.

Then click to see weather observations and forecasts.

To change the map : click on the green buttons with a black cross to zoom in, on the green button with a dash to zoom out, or on the green arrows for adjacent maps.


METAR-TAF: